sensor_id;sensor_type;location;lat;lon;timestamp;P1;durP1;ratioP1;P2;durP2;ratioP2
74920;SDS011;63483;47.384;8.860;2022-12-18T00:00:44;30.57;;;14.17;;
74920;SDS011;63483;47.384;8.860;2022-12-18T00:03:12;31.90;;;13.48;;
74920;SDS011;63483;47.384;8.860;2022-12-18T00:05:45;26.40;;;11.87;;
74920;SDS011;63483;47.384;8.860;2022-12-18T00:08:15;30.85;;;12.73;;
74920;SDS011;63483;47.384;8.860;2022-12-18T00:10:40;29.92;;;12.32;;
74920;SDS011;63483;47.384;8.860;2022-12-18T00:13:06;32.03;;;13.00;;
74920;SDS011;63483;47.384;8.860;2022-12-18T00:15:33;28.37;;;11.63;;
74920;SDS011;63483;47.384;8.860;2022-12-18T00:17:59;29.08;;;12.30;;
74920;SDS011;63483;47.384;8.860;2022-12-18T00:20:24;27.70;;;11.67;;
74920;SDS011;63483;47.384;8.860;2022-12-18T00:22:51;30.40;;;13.02;;
74920;SDS011;63483;47.384;8.860;2022-12-18T00:25:17;29.33;;;12.45;;
74920;SDS011;63483;47.384;8.860;2022-12-18T00:27:42;29.33;;;12.17;;
74920;SDS011;63483;47.384;8.860;2022-12-18T00:30:08;27.00;;;11.93;;
74920;SDS011;63483;47.384;8.860;2022-12-18T00:32:33;27.50;;;11.68;;
74920;SDS011;63483;47.384;8.860;2022-12-18T00:34:59;26.47;;;11.13;;
74920;SDS011;63483;47.384;8.860;2022-12-18T00:37:24;25.80;;;11.30;;
74920;SDS011;63483;47.384;8.860;2022-12-18T00:39:49;27.20;;;11.37;;
74920;SDS011;63483;47.384;8.860;2022-12-18T00:42:15;25.77;;;10.97;;
74920;SDS011;63483;47.384;8.860;2022-12-18T00:44:59;27.77;;;11.85;;
74920;SDS011;63483;47.384;8.860;2022-12-18T00:47:24;27.17;;;11.80;;
74920;SDS011;63483;47.384;8.860;2022-12-18T00:49:49;29.53;;;12.03;;
74920;SDS011;63483;47.384;8.860;2022-12-18T00:52:15;24.73;;;10.33;;
74920;SDS011;63483;47.384;8.860;2022-12-18T00:54:40;21.80;;;10.77;;
74920;SDS011;63483;47.384;8.860;2022-12-18T00:57:05;23.60;;;9.70;;
74920;SDS011;63483;47.384;8.860;2022-12-18T00:59:30;23.38;;;8.77;;
74920;SDS011;63483;47.384;8.860;2022-12-18T01:01:56;30.90;;;11.52;;
74920;SDS011;63483;47.384;8.860;2022-12-18T01:04:21;25.23;;;10.83;;
74920;SDS011;63483;47.384;8.860;2022-12-18T01:06:47;27.07;;;10.00;;
74920;SDS011;63483;47.384;8.860;2022-12-18T01:09:13;21.77;;;9.32;;
74920;SDS011;63483;47.384;8.860;2022-12-18T01:11:39;23.67;;;10.70;;
74920;SDS011;63483;47.384;8.860;2022-12-18T01:14:04;30.83;;;11.40;;
74920;SDS011;63483;47.384;8.860;2022-12-18T01:16:30;29.27;;;11.40;;
74920;SDS011;63483;47.384;8.860;2022-12-18T01:18:55;24.87;;;10.43;;
74920;SDS011;63483;47.384;8.860;2022-12-18T01:21:21;26.03;;;10.60;;
74920;SDS011;63483;47.384;8.860;2022-12-18T01:23:50;26.58;;;10.43;;
74920;SDS011;63483;47.384;8.860;2022-12-18T01:26:17;26.42;;;10.73;;
74920;SDS011;63483;47.384;8.860;2022-12-18T01:28:42;26.43;;;10.77;;
74920;SDS011;63483;47.384;8.860;2022-12-18T01:33:39;27.90;;;11.48;;
74920;SDS011;63483;47.384;8.860;2022-12-18T01:36:05;29.77;;;10.13;;
74920;SDS011;63483;47.384;8.860;2022-12-18T01:38:30;25.93;;;10.93;;
74920;SDS011;63483;47.384;8.860;2022-12-18T01:40:59;24.77;;;10.43;;
74920;SDS011;63483;47.384;8.860;2022-12-18T01:46:26;25.15;;;9.18;;
74920;SDS011;63483;47.384;8.860;2022-12-18T01:48:53;28.92;;;10.18;;
74920;SDS011;63483;47.384;8.860;2022-12-18T01:51:22;27.90;;;11.13;;
74920;SDS011;63483;47.384;8.860;2022-12-18T01:53:48;27.73;;;10.45;;
74920;SDS011;63483;47.384;8.860;2022-12-18T01:56:20;32.60;;;12.85;;
74920;SDS011;63483;47.384;8.860;2022-12-18T02:01:29;22.73;;;9.10;;
74920;SDS011;63483;47.384;8.860;2022-12-18T02:03:56;21.67;;;9.60;;
74920;SDS011;63483;47.384;8.860;2022-12-18T02:06:45;22.65;;;9.52;;
74920;SDS011;63483;47.384;8.860;2022-12-18T02:09:20;21.67;;;9.18;;
74920;SDS011;63483;47.384;8.860;2022-12-18T02:14:38;23.52;;;9.68;;
74920;SDS011;63483;47.384;8.860;2022-12-18T02:17:21;28.95;;;9.55;;
74920;SDS011;63483;47.384;8.860;2022-12-18T02:22:59;23.75;;;9.07;;
74920;SDS011;63483;47.384;8.860;2022-12-18T02:27:51;22.73;;;10.10;;
74920;SDS011;63483;47.384;8.860;2022-12-18T02:30:19;26.45;;;10.13;;
74920;SDS011;63483;47.384;8.860;2022-12-18T02:32:47;23.87;;;9.30;;
74920;SDS011;63483;47.384;8.860;2022-12-18T02:35:19;26.60;;;9.77;;
74920;SDS011;63483;47.384;8.860;2022-12-18T02:37:48;24.42;;;9.65;;
74920;SDS011;63483;47.384;8.860;2022-12-18T02:40:15;23.63;;;10.43;;
74920;SDS011;63483;47.384;8.860;2022-12-18T02:42:42;27.93;;;10.93;;
74920;SDS011;63483;47.384;8.860;2022-12-18T02:45:07;26.40;;;10.65;;
74920;SDS011;63483;47.384;8.860;2022-12-18T02:47:33;22.67;;;9.60;;
74920;SDS011;63483;47.384;8.860;2022-12-18T02:50:19;27.50;;;9.88;;
74920;SDS011;63483;47.384;8.860;2022-12-18T02:56:05;24.63;;;10.90;;
74920;SDS011;63483;47.384;8.860;2022-12-18T02:58:52;24.73;;;10.25;;
74920;SDS011;63483;47.384;8.860;2022-12-18T03:01:21;24.90;;;8.68;;
74920;SDS011;63483;47.384;8.860;2022-12-18T03:04:00;20.77;;;9.65;;
74920;SDS011;63483;47.384;8.860;2022-12-18T03:06:33;18.23;;;8.50;;
74920;SDS011;63483;47.384;8.860;2022-12-18T03:09:04;21.60;;;9.52;;
74920;SDS011;63483;47.384;8.860;2022-12-18T03:11:36;25.20;;;10.15;;
74920;SDS011;63483;47.384;8.860;2022-12-18T03:14:22;21.70;;;9.32;;
74920;SDS011;63483;47.384;8.860;2022-12-18T03:16:52;15.05;;;6.38;;
74920;SDS011;63483;47.384;8.860;2022-12-18T03:19:23;19.98;;;8.00;;
74920;SDS011;63483;47.384;8.860;2022-12-18T03:21:55;21.58;;;9.73;;
74920;SDS011;63483;47.384;8.860;2022-12-18T03:24:22;17.92;;;7.55;;
74920;SDS011;63483;47.384;8.860;2022-12-18T03:26:52;22.58;;;8.93;;
74920;SDS011;63483;47.384;8.860;2022-12-18T03:32:08;16.50;;;7.80;;
74920;SDS011;63483;47.384;8.860;2022-12-18T03:34:37;19.48;;;8.25;;
74920;SDS011;63483;47.384;8.860;2022-12-18T03:37:06;23.70;;;8.57;;
74920;SDS011;63483;47.384;8.860;2022-12-18T03:39:32;21.75;;;8.95;;
74920;SDS011;63483;47.384;8.860;2022-12-18T03:42:06;18.88;;;8.57;;
74920;SDS011;63483;47.384;8.860;2022-12-18T03:47:12;24.42;;;9.05;;
74920;SDS011;63483;47.384;8.860;2022-12-18T03:52:30;23.77;;;10.13;;
74920;SDS011;63483;47.384;8.860;2022-12-18T03:55:01;22.85;;;9.45;;
74920;SDS011;63483;47.384;8.860;2022-12-18T03:57:30;22.90;;;9.32;;
74920;SDS011;63483;47.384;8.860;2022-12-18T03:59:59;21.80;;;9.68;;
74920;SDS011;63483;47.384;8.860;2022-12-18T04:02:28;26.23;;;10.23;;
74920;SDS011;63483;47.384;8.860;2022-12-18T04:04:57;29.92;;;10.65;;
74920;SDS011;63483;47.384;8.860;2022-12-18T04:07:25;45.97;;;10.73;;
74920;SDS011;63483;47.384;8.860;2022-12-18T04:09:52;19.02;;;8.05;;
74920;SDS011;63483;47.384;8.860;2022-12-18T04:12:23;25.42;;;9.80;;
74920;SDS011;63483;47.384;8.860;2022-12-18T04:14:50;26.13;;;10.18;;
74920;SDS011;63483;47.384;8.860;2022-12-18T04:17:15;27.60;;;10.37;;
74920;SDS011;63483;47.384;8.860;2022-12-18T04:19:41;23.80;;;8.65;;
74920;SDS011;63483;47.384;8.860;2022-12-18T04:22:06;22.43;;;9.27;;
74920;SDS011;63483;47.384;8.860;2022-12-18T04:24:31;23.50;;;9.53;;
74920;SDS011;63483;47.384;8.860;2022-12-18T04:26:57;24.73;;;9.47;;
74920;SDS011;63483;47.384;8.860;2022-12-18T04:29:22;24.13;;;9.83;;
74920;SDS011;63483;47.384;8.860;2022-12-18T04:31:47;21.53;;;9.03;;
74920;SDS011;63483;47.384;8.860;2022-12-18T04:34:13;21.33;;;8.60;;
74920;SDS011;63483;47.384;8.860;2022-12-18T04:36:38;22.90;;;9.83;;
74920;SDS011;63483;47.384;8.860;2022-12-18T04:39:03;24.10;;;9.83;;
74920;SDS011;63483;47.384;8.860;2022-12-18T04:41:28;21.90;;;9.27;;
74920;SDS011;63483;47.384;8.860;2022-12-18T04:43:54;23.43;;;10.53;;
74920;SDS011;63483;47.384;8.860;2022-12-18T04:46:19;24.33;;;9.20;;
74920;SDS011;63483;47.384;8.860;2022-12-18T04:48:45;22.53;;;9.00;;
74920;SDS011;63483;47.384;8.860;2022-12-18T04:51:11;22.00;;;8.90;;
74920;SDS011;63483;47.384;8.860;2022-12-18T04:53:37;21.57;;;9.07;;
74920;SDS011;63483;47.384;8.860;2022-12-18T04:56:12;23.00;;;9.10;;
74920;SDS011;63483;47.384;8.860;2022-12-18T04:58:39;23.88;;;9.15;;
74920;SDS011;63483;47.384;8.860;2022-12-18T05:01:06;22.48;;;9.70;;
74920;SDS011;63483;47.384;8.860;2022-12-18T05:03:32;23.17;;;9.52;;
74920;SDS011;63483;47.384;8.860;2022-12-18T05:05:58;20.80;;;9.15;;
74920;SDS011;63483;47.384;8.860;2022-12-18T05:08:24;25.83;;;9.73;;
74920;SDS011;63483;47.384;8.860;2022-12-18T05:10:49;23.30;;;9.53;;
74920;SDS011;63483;47.384;8.860;2022-12-18T05:13:14;22.60;;;8.93;;
74920;SDS011;63483;47.384;8.860;2022-12-18T05:15:40;25.20;;;9.40;;
74920;SDS011;63483;47.384;8.860;2022-12-18T05:18:06;25.80;;;9.50;;
74920;SDS011;63483;47.384;8.860;2022-12-18T05:20:32;24.40;;;10.40;;
74920;SDS011;63483;47.384;8.860;2022-12-18T05:22:58;19.27;;;8.27;;
74920;SDS011;63483;47.384;8.860;2022-12-18T05:25:23;22.60;;;9.10;;
74920;SDS011;63483;47.384;8.860;2022-12-18T05:27:49;21.10;;;8.95;;
74920;SDS011;63483;47.384;8.860;2022-12-18T05:30:14;21.07;;;9.20;;
74920;SDS011;63483;47.384;8.860;2022-12-18T05:32:40;26.05;;;10.05;;
74920;SDS011;63483;47.384;8.860;2022-12-18T05:35:06;23.73;;;9.13;;
74920;SDS011;63483;47.384;8.860;2022-12-18T05:37:32;21.73;;;8.48;;
74920;SDS011;63483;47.384;8.860;2022-12-18T05:39:58;22.63;;;9.43;;
74920;SDS011;63483;47.384;8.860;2022-12-18T05:42:24;25.87;;;10.37;;
74920;SDS011;63483;47.384;8.860;2022-12-18T05:44:49;22.55;;;10.07;;
74920;SDS011;63483;47.384;8.860;2022-12-18T05:47:15;21.27;;;9.77;;
74920;SDS011;63483;47.384;8.860;2022-12-18T05:49:40;22.33;;;9.03;;
74920;SDS011;63483;47.384;8.860;2022-12-18T05:52:06;26.25;;;10.27;;
74920;SDS011;63483;47.384;8.860;2022-12-18T05:54:31;25.55;;;11.25;;
74920;SDS011;63483;47.384;8.860;2022-12-18T05:56:57;27.50;;;11.33;;
74920;SDS011;63483;47.384;8.860;2022-12-18T05:59:22;21.83;;;9.03;;
74920;SDS011;63483;47.384;8.860;2022-12-18T06:01:47;22.02;;;10.13;;
74920;SDS011;63483;47.384;8.860;2022-12-18T06:04:13;18.57;;;8.17;;
74920;SDS011;63483;47.384;8.860;2022-12-18T06:06:38;18.90;;;8.07;;
74920;SDS011;63483;47.384;8.860;2022-12-18T06:09:04;24.53;;;10.07;;
74920;SDS011;63483;47.384;8.860;2022-12-18T06:11:33;23.33;;;9.45;;
74920;SDS011;63483;47.384;8.860;2022-12-18T06:13:59;22.67;;;8.52;;
74920;SDS011;63483;47.384;8.860;2022-12-18T06:16:26;22.00;;;8.63;;
74920;SDS011;63483;47.384;8.860;2022-12-18T06:18:52;22.45;;;9.25;;
74920;SDS011;63483;47.384;8.860;2022-12-18T06:21:18;24.63;;;9.23;;
74920;SDS011;63483;47.384;8.860;2022-12-18T06:23:43;25.53;;;10.13;;
74920;SDS011;63483;47.384;8.860;2022-12-18T06:26:10;18.35;;;8.50;;
74920;SDS011;63483;47.384;8.860;2022-12-18T06:28:37;21.15;;;9.20;;
74920;SDS011;63483;47.384;8.860;2022-12-18T06:31:03;19.70;;;8.55;;
74920;SDS011;63483;47.384;8.860;2022-12-18T06:33:29;22.92;;;9.85;;
74920;SDS011;63483;47.384;8.860;2022-12-18T06:35:59;24.33;;;10.07;;
74920;SDS011;63483;47.384;8.860;2022-12-18T06:38:26;27.38;;;10.23;;
74920;SDS011;63483;47.384;8.860;2022-12-18T06:40:52;22.97;;;9.90;;
74920;SDS011;63483;47.384;8.860;2022-12-18T06:43:17;22.53;;;9.33;;
74920;SDS011;63483;47.384;8.860;2022-12-18T06:45:42;23.83;;;10.18;;
74920;SDS011;63483;47.384;8.860;2022-12-18T06:48:08;25.38;;;10.80;;
74920;SDS011;63483;47.384;8.860;2022-12-18T06:50:33;23.93;;;10.40;;
74920;SDS011;63483;47.384;8.860;2022-12-18T06:52:59;22.20;;;10.90;;
74920;SDS011;63483;47.384;8.860;2022-12-18T06:55:24;22.37;;;11.10;;
74920;SDS011;63483;47.384;8.860;2022-12-18T06:57:50;25.45;;;10.75;;
74920;SDS011;63483;47.384;8.860;2022-12-18T07:00:15;32.37;;;12.20;;
74920;SDS011;63483;47.384;8.860;2022-12-18T07:02:40;20.17;;;8.57;;
74920;SDS011;63483;47.384;8.860;2022-12-18T07:05:06;21.17;;;8.60;;
74920;SDS011;63483;47.384;8.860;2022-12-18T07:07:33;21.23;;;7.97;;
74920;SDS011;63483;47.384;8.860;2022-12-18T07:09:59;20.55;;;9.35;;
74920;SDS011;63483;47.384;8.860;2022-12-18T07:12:26;24.30;;;8.97;;
74920;SDS011;63483;47.384;8.860;2022-12-18T07:14:52;17.00;;;7.75;;
74920;SDS011;63483;47.384;8.860;2022-12-18T07:17:17;22.03;;;8.37;;
74920;SDS011;63483;47.384;8.860;2022-12-18T07:19:42;20.07;;;8.50;;
74920;SDS011;63483;47.384;8.860;2022-12-18T07:22:08;18.00;;;8.57;;
74920;SDS011;63483;47.384;8.860;2022-12-18T07:24:33;24.87;;;9.93;;
74920;SDS011;63483;47.384;8.860;2022-12-18T07:26:59;21.35;;;9.80;;
74920;SDS011;63483;47.384;8.860;2022-12-18T07:29:24;24.00;;;9.57;;
74920;SDS011;63483;47.384;8.860;2022-12-18T07:31:50;25.90;;;9.73;;
74920;SDS011;63483;47.384;8.860;2022-12-18T07:34:16;23.13;;;9.88;;
74920;SDS011;63483;47.384;8.860;2022-12-18T07:36:41;25.47;;;9.80;;
74920;SDS011;63483;47.384;8.860;2022-12-18T07:39:06;22.10;;;9.53;;
74920;SDS011;63483;47.384;8.860;2022-12-18T07:41:32;22.57;;;10.40;;
74920;SDS011;63483;47.384;8.860;2022-12-18T07:43:58;21.80;;;10.13;;
74920;SDS011;63483;47.384;8.860;2022-12-18T07:46:23;25.93;;;10.67;;
74920;SDS011;63483;47.384;8.860;2022-12-18T07:48:48;24.50;;;10.20;;
74920;SDS011;63483;47.384;8.860;2022-12-18T07:51:14;25.33;;;10.50;;
74920;SDS011;63483;47.384;8.860;2022-12-18T07:53:39;21.50;;;9.83;;
74920;SDS011;63483;47.384;8.860;2022-12-18T07:56:08;21.58;;;8.25;;
74920;SDS011;63483;47.384;8.860;2022-12-18T07:58:35;25.95;;;10.30;;
74920;SDS011;63483;47.384;8.860;2022-12-18T08:01:02;26.93;;;10.47;;
74920;SDS011;63483;47.384;8.860;2022-12-18T08:03:29;23.30;;;9.50;;
74920;SDS011;63483;47.384;8.860;2022-12-18T08:05:58;24.20;;;9.50;;
74920;SDS011;63483;47.384;8.860;2022-12-18T08:08:32;15.90;;;6.55;;
74920;SDS011;63483;47.384;8.860;2022-12-18T08:10:57;17.70;;;7.63;;
74920;SDS011;63483;47.384;8.860;2022-12-18T08:13:23;22.10;;;9.40;;
74920;SDS011;63483;47.384;8.860;2022-12-18T08:15:59;17.35;;;7.75;;
74920;SDS011;63483;47.384;8.860;2022-12-18T08:18:26;18.73;;;7.65;;
74920;SDS011;63483;47.384;8.860;2022-12-18T08:20:54;20.45;;;8.18;;
74920;SDS011;63483;47.384;8.860;2022-12-18T08:23:20;17.35;;;8.13;;
74920;SDS011;63483;47.384;8.860;2022-12-18T08:25:45;19.20;;;8.87;;
74920;SDS011;63483;47.384;8.860;2022-12-18T08:28:10;19.97;;;8.53;;
74920;SDS011;63483;47.384;8.860;2022-12-18T08:30:36;21.90;;;9.43;;
74920;SDS011;63483;47.384;8.860;2022-12-18T08:33:02;22.27;;;9.43;;
74920;SDS011;63483;47.384;8.860;2022-12-18T08:35:28;24.67;;;9.20;;
74920;SDS011;63483;47.384;8.860;2022-12-18T08:37:53;24.53;;;10.17;;
74920;SDS011;63483;47.384;8.860;2022-12-18T08:40:18;22.33;;;9.40;;
74920;SDS011;63483;47.384;8.860;2022-12-18T08:42:44;19.87;;;8.73;;
74920;SDS011;63483;47.384;8.860;2022-12-18T08:45:28;21.70;;;8.60;;
74920;SDS011;63483;47.384;8.860;2022-12-18T08:47:53;21.98;;;9.20;;
74920;SDS011;63483;47.384;8.860;2022-12-18T08:50:19;23.53;;;9.53;;
74920;SDS011;63483;47.384;8.860;2022-12-18T08:52:45;21.90;;;9.43;;
74920;SDS011;63483;47.384;8.860;2022-12-18T08:55:10;23.77;;;10.82;;
74920;SDS011;63483;47.384;8.860;2022-12-18T08:57:35;22.77;;;10.50;;
74920;SDS011;63483;47.384;8.860;2022-12-18T09:00:01;25.07;;;9.90;;
74920;SDS011;63483;47.384;8.860;2022-12-18T09:02:26;26.53;;;11.67;;
74920;SDS011;63483;47.384;8.860;2022-12-18T09:04:52;23.38;;;8.98;;
74920;SDS011;63483;47.384;8.860;2022-12-18T09:07:17;32.80;;;11.80;;
74920;SDS011;63483;47.384;8.860;2022-12-18T09:09:42;25.73;;;10.23;;
74920;SDS011;63483;47.384;8.860;2022-12-18T09:12:08;21.47;;;9.33;;
74920;SDS011;63483;47.384;8.860;2022-12-18T09:14:33;25.90;;;9.98;;
74920;SDS011;63483;47.384;8.860;2022-12-18T09:16:59;22.20;;;9.05;;
74920;SDS011;63483;47.384;8.860;2022-12-18T09:19:24;21.33;;;8.77;;
74920;SDS011;63483;47.384;8.860;2022-12-18T09:21:49;26.90;;;10.30;;
74920;SDS011;63483;47.384;8.860;2022-12-18T09:24:15;24.20;;;9.50;;
74920;SDS011;63483;47.384;8.860;2022-12-18T09:26:41;18.35;;;7.47;;
74920;SDS011;63483;47.384;8.860;2022-12-18T09:29:06;20.77;;;8.50;;
74920;SDS011;63483;47.384;8.860;2022-12-18T09:31:35;23.52;;;9.82;;
74920;SDS011;63483;47.384;8.860;2022-12-18T09:34:01;19.98;;;8.88;;
74920;SDS011;63483;47.384;8.860;2022-12-18T09:36:26;22.97;;;9.83;;
74920;SDS011;63483;47.384;8.860;2022-12-18T09:38:51;23.70;;;9.70;;
74920;SDS011;63483;47.384;8.860;2022-12-18T09:43:53;23.67;;;9.48;;
74920;SDS011;63483;47.384;8.860;2022-12-18T09:46:26;21.20;;;8.40;;
74920;SDS011;63483;47.384;8.860;2022-12-18T09:49:01;24.30;;;10.75;;
74920;SDS011;63483;47.384;8.860;2022-12-18T09:51:33;25.13;;;9.82;;
74920;SDS011;63483;47.384;8.860;2022-12-18T09:54:05;26.20;;;10.70;;
74920;SDS011;63483;47.384;8.860;2022-12-18T09:56:35;28.77;;;9.90;;
74920;SDS011;63483;47.384;8.860;2022-12-18T09:59:05;18.27;;;8.50;;
74920;SDS011;63483;47.384;8.860;2022-12-18T10:01:31;22.90;;;9.77;;
74920;SDS011;63483;47.384;8.860;2022-12-18T10:03:57;24.80;;;10.95;;
74920;SDS011;63483;47.384;8.860;2022-12-18T10:09:10;27.30;;;10.20;;
74920;SDS011;63483;47.384;8.860;2022-12-18T10:12:04;28.23;;;11.40;;
74920;SDS011;63483;47.384;8.860;2022-12-18T10:20:13;26.30;;;10.88;;
74920;SDS011;63483;47.384;8.860;2022-12-18T10:25:28;23.02;;;9.80;;
74920;SDS011;63483;47.384;8.860;2022-12-18T10:27:57;24.08;;;9.35;;
74920;SDS011;63483;47.384;8.860;2022-12-18T10:30:32;23.42;;;9.63;;
74920;SDS011;63483;47.384;8.860;2022-12-18T10:33:01;26.20;;;10.68;;
74920;SDS011;63483;47.384;8.860;2022-12-18T10:35:28;21.50;;;10.65;;
74920;SDS011;63483;47.384;8.860;2022-12-18T10:40:50;27.48;;;10.68;;
74920;SDS011;63483;47.384;8.860;2022-12-18T10:48:24;28.00;;;11.85;;
74920;SDS011;63483;47.384;8.860;2022-12-18T10:50:50;30.27;;;13.13;;
74920;SDS011;63483;47.384;8.860;2022-12-18T10:53:19;24.77;;;10.87;;
74920;SDS011;63483;47.384;8.860;2022-12-18T10:55:47;27.15;;;12.18;;
74920;SDS011;63483;47.384;8.860;2022-12-18T10:58:16;29.88;;;11.38;;
74920;SDS011;63483;47.384;8.860;2022-12-18T11:03:32;28.92;;;11.70;;
74920;SDS011;63483;47.384;8.860;2022-12-18T11:06:04;28.30;;;12.07;;
74920;SDS011;63483;47.384;8.860;2022-12-18T11:08:29;25.70;;;11.05;;
74920;SDS011;63483;47.384;8.860;2022-12-18T11:10:55;26.53;;;11.20;;
74920;SDS011;63483;47.384;8.860;2022-12-18T11:13:21;38.55;;;14.55;;
74920;SDS011;63483;47.384;8.860;2022-12-18T11:15:49;29.33;;;12.40;;
74920;SDS011;63483;47.384;8.860;2022-12-18T11:18:32;30.73;;;12.15;;
74920;SDS011;63483;47.384;8.860;2022-12-18T11:21:09;31.20;;;13.02;;
74920;SDS011;63483;47.384;8.860;2022-12-18T11:23:43;30.98;;;11.90;;
74920;SDS011;63483;47.384;8.860;2022-12-18T11:26:19;28.88;;;12.68;;
74920;SDS011;63483;47.384;8.860;2022-12-18T11:28:47;27.13;;;12.13;;
74920;SDS011;63483;47.384;8.860;2022-12-18T11:33:54;27.67;;;11.88;;
74920;SDS011;63483;47.384;8.860;2022-12-18T11:36:24;27.70;;;11.07;;
74920;SDS011;63483;47.384;8.860;2022-12-18T11:38:53;24.75;;;10.25;;
74920;SDS011;63483;47.384;8.860;2022-12-18T11:41:39;27.73;;;11.30;;
74920;SDS011;63483;47.384;8.860;2022-12-18T11:44:52;27.25;;;11.07;;
74920;SDS011;63483;47.384;8.860;2022-12-18T11:47:34;25.73;;;10.70;;
74920;SDS011;63483;47.384;8.860;2022-12-18T11:50:14;26.45;;;11.65;;
74920;SDS011;63483;47.384;8.860;2022-12-18T11:52:44;24.00;;;11.07;;
74920;SDS011;63483;47.384;8.860;2022-12-18T11:55:27;28.90;;;13.47;;
74920;SDS011;63483;47.384;8.860;2022-12-18T11:58:03;27.55;;;12.30;;
74920;SDS011;63483;47.384;8.860;2022-12-18T12:00:56;28.30;;;10.85;;
74920;SDS011;63483;47.384;8.860;2022-12-18T12:22:00;32.08;;;13.50;;
74920;SDS011;63483;47.384;8.860;2022-12-18T12:27:33;30.93;;;13.40;;
74920;SDS011;63483;47.384;8.860;2022-12-18T12:30:19;27.15;;;12.18;;
74920;SDS011;63483;47.384;8.860;2022-12-18T12:32:52;25.60;;;12.00;;
74920;SDS011;63483;47.384;8.860;2022-12-18T12:40:59;24.40;;;11.33;;
74920;SDS011;63483;47.384;8.860;2022-12-18T12:46:06;24.55;;;11.60;;
74920;SDS011;63483;47.384;8.860;2022-12-18T12:51:26;27.67;;;11.98;;
74920;SDS011;63483;47.384;8.860;2022-12-18T12:53:54;24.70;;;10.83;;
74920;SDS011;63483;47.384;8.860;2022-12-18T12:56:22;22.92;;;9.95;;
74920;SDS011;63483;47.384;8.860;2022-12-18T12:58:56;26.80;;;11.70;;
74920;SDS011;63483;47.384;8.860;2022-12-18T13:01:58;25.95;;;10.95;;
74920;SDS011;63483;47.384;8.860;2022-12-18T13:05:25;29.00;;;11.73;;
74920;SDS011;63483;47.384;8.860;2022-12-18T13:07:41;26.87;;;10.97;;
74920;SDS011;63483;47.384;8.860;2022-12-18T13:18:03;34.90;;;14.95;;
74920;SDS011;63483;47.384;8.860;2022-12-18T13:20:33;28.97;;;12.80;;
74920;SDS011;63483;47.384;8.860;2022-12-18T13:23:00;31.02;;;12.63;;
74920;SDS011;63483;47.384;8.860;2022-12-18T13:28:08;31.40;;;13.40;;
74920;SDS011;63483;47.384;8.860;2022-12-18T13:30:49;27.95;;;12.65;;
74920;SDS011;63483;47.384;8.860;2022-12-18T13:49:02;25.20;;;10.95;;
74920;SDS011;63483;47.384;8.860;2022-12-18T13:51:41;21.88;;;10.27;;
74920;SDS011;63483;47.384;8.860;2022-12-18T13:54:19;22.00;;;9.43;;
74920;SDS011;63483;47.384;8.860;2022-12-18T13:56:46;21.95;;;9.82;;
74920;SDS011;63483;47.384;8.860;2022-12-18T13:59:17;21.77;;;9.47;;
74920;SDS011;63483;47.384;8.860;2022-12-18T14:01:49;23.67;;;10.15;;
74920;SDS011;63483;47.384;8.860;2022-12-18T14:04:21;25.67;;;10.38;;
74920;SDS011;63483;47.384;8.860;2022-12-18T14:06:51;23.95;;;9.43;;
74920;SDS011;63483;47.384;8.860;2022-12-18T14:09:27;25.88;;;9.48;;
74920;SDS011;63483;47.384;8.860;2022-12-18T14:11:55;27.70;;;11.60;;
74920;SDS011;63483;47.384;8.860;2022-12-18T14:14:42;25.73;;;10.40;;
74920;SDS011;63483;47.384;8.860;2022-12-18T14:17:10;27.27;;;11.25;;
74920;SDS011;63483;47.384;8.860;2022-12-18T14:19:37;29.98;;;11.38;;
74920;SDS011;63483;47.384;8.860;2022-12-18T14:22:16;28.02;;;12.23;;
74920;SDS011;63483;47.384;8.860;2022-12-18T14:24:44;24.77;;;10.53;;
74920;SDS011;63483;47.384;8.860;2022-12-18T14:27:21;31.35;;;11.80;;
74920;SDS011;63483;47.384;8.860;2022-12-18T14:29:48;24.67;;;10.65;;
74920;SDS011;63483;47.384;8.860;2022-12-18T14:32:15;28.13;;;10.97;;
74920;SDS011;63483;47.384;8.860;2022-12-18T14:34:52;31.15;;;11.55;;
74920;SDS011;63483;47.384;8.860;2022-12-18T14:37:25;31.13;;;13.57;;
74920;SDS011;63483;47.384;8.860;2022-12-18T14:39:55;28.10;;;12.20;;
74920;SDS011;63483;47.384;8.860;2022-12-18T14:42:23;25.48;;;12.13;;
74920;SDS011;63483;47.384;8.860;2022-12-18T14:45:10;25.70;;;11.20;;
74920;SDS011;63483;47.384;8.860;2022-12-18T14:47:56;34.95;;;13.50;;
74920;SDS011;63483;47.384;8.860;2022-12-18T14:50:22;26.65;;;10.57;;
74920;SDS011;63483;47.384;8.860;2022-12-18T14:52:47;27.73;;;11.60;;
74920;SDS011;63483;47.384;8.860;2022-12-18T14:55:16;25.37;;;10.43;;
74920;SDS011;63483;47.384;8.860;2022-12-18T14:57:43;22.38;;;9.93;;
74920;SDS011;63483;47.384;8.860;2022-12-18T15:00:19;26.00;;;10.45;;
74920;SDS011;63483;47.384;8.860;2022-12-18T15:02:47;27.38;;;10.63;;
74920;SDS011;63483;47.384;8.860;2022-12-18T15:05:17;24.42;;;10.85;;
74920;SDS011;63483;47.384;8.860;2022-12-18T15:07:47;26.90;;;10.57;;
74920;SDS011;63483;47.384;8.860;2022-12-18T15:10:16;25.90;;;10.43;;
74920;SDS011;63483;47.384;8.860;2022-12-18T15:20:48;30.47;;;12.73;;
74920;SDS011;63483;47.384;8.860;2022-12-18T15:25:54;28.67;;;13.00;;
74920;SDS011;63483;47.384;8.860;2022-12-18T15:28:25;27.58;;;11.65;;
74920;SDS011;63483;47.384;8.860;2022-12-18T15:31:04;28.60;;;12.18;;
74920;SDS011;63483;47.384;8.860;2022-12-18T15:33:43;28.77;;;12.53;;
74920;SDS011;63483;47.384;8.860;2022-12-18T15:36:16;30.05;;;12.63;;
74920;SDS011;63483;47.384;8.860;2022-12-18T15:38:51;29.95;;;12.80;;
74920;SDS011;63483;47.384;8.860;2022-12-18T15:41:18;28.23;;;11.48;;
74920;SDS011;63483;47.384;8.860;2022-12-18T15:43:45;27.35;;;11.52;;
74920;SDS011;63483;47.384;8.860;2022-12-18T15:46:16;32.10;;;13.50;;
74920;SDS011;63483;47.384;8.860;2022-12-18T15:48:44;349.77;;;32.63;;
74920;SDS011;63483;47.384;8.860;2022-12-18T15:51:13;42.00;;;16.25;;
74920;SDS011;63483;47.384;8.860;2022-12-18T15:53:41;33.15;;;14.35;;
74920;SDS011;63483;47.384;8.860;2022-12-18T15:56:10;34.55;;;13.20;;
74920;SDS011;63483;47.384;8.860;2022-12-18T15:59:14;26.00;;;11.87;;
74920;SDS011;63483;47.384;8.860;2022-12-18T16:01:43;26.40;;;10.73;;
74920;SDS011;63483;47.384;8.860;2022-12-18T16:04:14;35.03;;;12.88;;
74920;SDS011;63483;47.384;8.860;2022-12-18T16:06:41;37.00;;;14.40;;
74920;SDS011;63483;47.384;8.860;2022-12-18T16:09:07;34.73;;;14.23;;
74920;SDS011;63483;47.384;8.860;2022-12-18T16:11:33;29.30;;;13.18;;
74920;SDS011;63483;47.384;8.860;2022-12-18T16:16:46;32.70;;;12.60;;
74920;SDS011;63483;47.384;8.860;2022-12-18T16:19:13;34.55;;;13.55;;
74920;SDS011;63483;47.384;8.860;2022-12-18T16:21:39;36.47;;;15.05;;
74920;SDS011;63483;47.384;8.860;2022-12-18T16:24:40;31.65;;;13.18;;
74920;SDS011;63483;47.384;8.860;2022-12-18T16:27:01;29.50;;;11.80;;
74920;SDS011;63483;47.384;8.860;2022-12-18T16:29:27;30.67;;;13.27;;
74920;SDS011;63483;47.384;8.860;2022-12-18T16:31:53;34.75;;;14.20;;
74920;SDS011;63483;47.384;8.860;2022-12-18T16:34:21;31.13;;;13.77;;
74920;SDS011;63483;47.384;8.860;2022-12-18T16:36:51;35.58;;;14.85;;
74920;SDS011;63483;47.384;8.860;2022-12-18T16:39:17;38.47;;;15.13;;
74920;SDS011;63483;47.384;8.860;2022-12-18T16:41:42;33.67;;;13.33;;
74920;SDS011;63483;47.384;8.860;2022-12-18T16:44:08;40.30;;;16.08;;